W1JV-10 Weather Reports


Display with metric or nautical units.
time (UTC)temp
F
wind
direction
speed
MPH
gust
MPH
rain 1hr
in
rain 24hr
in
rain mn
in
humidity
%
barometer
mb
20200531165109 64 212 2.0 3.0 0.00 0.00 0.00 36
20200531164357 64 131 1.0 2.0 0.00 0.00 0.00 37
20200531163645 63 307 3.0 5.0 0.00 0.00 0.00 39
20200531162933 64 95 0.0 1.0 0.00 0.00 0.00 38
20200531162221 64 133 0.0 1.0 0.00 0.00 0.00 39
20200531161509 63 147 0.0 1.0 0.00 0.00 0.00 41
20200531160757 63 160 1.0 2.0 0.00 0.00 0.00 40
20200531160045 62 180 3.0 5.0 0.00 0.00 0.00 42
20200531155333 62 212 3.0 3.0 0.00 0.00 0.00 41
20200531154621 63 258 0.0 2.0 0.00 0.00 0.00 40
20200531153909 61 241 2.0 3.0 0.00 0.00 0.00 41
20200531153157 61 3 1.0 2.0 0.00 0.00 0.00 41
20200531152445 61 351 2.0 4.0 0.00 0.00 0.00 42
20200531151733 61 154 1.0 2.0 0.00 0.00 0.00 44
20200531151021 60 122 2.0 3.0 0.00 0.00 0.00 44
20200531150310 61 294 7.0 10.0 0.00 0.00 0.00 43
20200531145558 59 154 0.0 2.0 0.00 0.00 0.00 47
20200531144846 60 128 4.0 9.0 0.00 0.00 0.00 45
20200531144133 59 134 1.0 3.0 0.00 0.00 0.00 50
20200531143421 59 270 3.0 5.0 0.00 0.00 0.00 48
20200531142709 58 129 1.0 2.0 0.00 0.00 0.00 48
20200531141958 59 234 4.0 6.0 0.00 0.00 0.00 49
20200531141246 58 305 2.0 3.0 0.00 0.00 0.00 49
20200531140533 58 49 1.0 2.0 0.00 0.00 0.00 50
20200531135821 57 14 0.0 1.0 0.00 0.00 0.00 50
20200531135110 58 346 7.0 11.0 0.00 0.00 0.00 49
20200531134357 58 226 1.0 2.0 0.00 0.00 0.00 52
20200531133646 57 259 0.0 1.0 0.00 0.00 0.00 53
20200531132933 58 321 2.0 3.0 0.00 0.00 0.00 52
20200531132222 58 57 1.0 2.0 0.00 0.00 0.00 54
20200531131509 58 189 3.0 4.0 0.00 0.00 0.00 53
20200531130757 58 43 1.0 2.0 0.00 0.00 0.00 53
20200531130046 58 107 0.0 1.0 0.00 0.00 0.00 55
20200531125339 57 26 3.0 8.0 0.00 0.00 0.00 54
20200531124638 58 328 2.0 4.0 0.00 0.00 0.00 54
20200531123925 57 29 4.0 8.0 0.00 0.00 0.00 54
20200531123213 57 152 1.0 3.0 0.00 0.00 0.00 54
20200531122501 57 289 4.0 8.0 0.00 0.00 0.00 54
20200531121750 57 163 1.0 2.0 0.00 0.00 0.00 55
20200531121037 57 346 6.0 9.0 0.00 0.00 0.00 57
20200531120325 57 353 3.0 3.0 0.00 0.00 0.00 57
20200531115613 57 307 6.0 10.0 0.00 0.00 0.00 56
20200531114902 57 201 1.0 2.0 0.00 0.00 0.00 55
20200531114150 58 189 1.0 1.0 0.00 0.00 0.00 57
20200531113438 58 48 3.0 4.0 0.00 0.00 0.00 56
20200531112726 58 330 3.0 5.0 0.00 0.00 0.00 57
20200531112014 58 59 1.0 3.0 0.00 0.00 0.00 58
20200531111302 58 357 4.0 5.0 0.00 0.00 0.00 59
20200531110550 58 182 1.0 2.0 0.00 0.00 0.00 61
20200531105838 58 135 2.0 3.0 0.00 0.00 0.00 62
20200531105126 59 238 3.0 6.0 0.00 0.00 0.00 63
20200531104414 59 154 1.0 2.0 0.00 0.00 0.00 67
20200531103702 59 170 2.0 2.0 0.00 0.00 0.00 70
20200531102949 59 185 0.0 0.0 0.00 0.00 0.00 71
20200531102238 59 250 0.0 1.0 0.00 0.00 0.00 71
20200531101526 59 152 0.0 1.0 0.00 0.00 0.00 71
20200531100813 59 144 0.0 0.0 0.00 0.00 0.00 71
20200531100101 59 131 0.0 0.0 0.00 0.00 0.00 71
20200531095350 59 143 0.0 1.0 0.00 0.00 0.00 71
20200531094638 59 225 1.0 2.0 0.00 0.00 0.00 71
20200531093925 59 161 0.0 0.0 0.00 0.00 0.00 72
20200531093157 59 186 0.0 0.0 0.00 0.00 0.00 71
20200531092445 59 124 0.0 0.0 0.00 0.00 0.00 71
20200531091646 59 148 0.0 1.0 0.00 0.00 0.00 70
20200531090933 59 109 0.0 0.0 0.00 0.00 0.00 70
20200531090221 60 158 0.0 0.0 0.00 0.00 0.00 69
20200531085510 60 127 0.0 0.0 0.00 0.00 0.00 69
20200531084757 60 207 1.0 1.0 0.00 0.00 0.00 68
20200531084045 60 139 0.0 1.0 0.00 0.00 0.00 68
20200531083334 61 125 0.0 0.0 0.00 0.00 0.00 68
20200531082622 61 310 2.0 5.0 0.00 0.00 0.00 67
20200531081910 61 308 2.0 3.0 0.00 0.00 0.00 67
20200531081157 61 138 1.0 2.0 0.00 0.00 0.00 66
20200531080443 61 113 0.0 1.0 0.00 0.00 0.00 67
20200531075733 62 139 0.0 0.0 0.00 0.00 0.00 66
20200531075022 62 275 2.0 4.0 0.00 0.00 0.00 65
20200531074309 62 215 0.0 2.0 0.00 0.00 0.00 65
20200531073557 62 94 2.0 3.0 0.00 0.00 0.00 64
20200531072843 62 165 0.0 0.0 0.00 0.00 0.00 65
20200531072134 63 12 2.0 3.0 0.00 0.00 0.00 64
20200531071422 63 122 1.0 2.0 0.00 0.00 0.00 65
20200531070710 63 233 1.0 2.0 0.00 0.00 0.00 64
20200531065942 63 109 0.0 1.0 0.00 0.00 0.00 64
20200531065242 63 209 2.0 3.0 0.00 0.00 0.00 65
20200531064534 63 183 1.0 2.0 0.00 0.00 0.00 66
20200531063822 63 154 0.0 1.0 0.00 0.00 0.00 66
20200531063110 63 141 0.0 0.0 0.00 0.00 0.00 66
20200531062342 63 122 0.0 0.0 0.00 0.00 0.00 65
20200531061641 64 146 0.0 0.0 0.00 0.00 0.00 64
20200531060934 64 137 0.0 0.0 0.00 0.00 0.00 62
20200531060222 64 206 0.0 1.0 0.00 0.00 0.00 62
20200531055510 64 158 0.0 2.0 0.00 0.00 0.00 61
20200531054758 65 83 0.0 1.0 0.00 0.00 0.00 60
20200531054046 65 190 0.0 1.0 0.00 0.00 0.00 59
20200531053342 65 299 0.0 4.0 0.00 0.00 0.00 59
20200531052638 66 132 0.0 1.0 0.00 0.00 0.00 58
20200531051926 66 141 0.0 1.0 0.00 0.00 0.00 58
20200531051214 66 134 0.0 1.0 0.00 0.00 0.00 58
20200531050441 66 121 0.0 0.0 0.00 0.00 0.00 58
20200531045734 66 148 0.0 1.0 0.00 0.00 0.00 58
20200531045022 66 311 0.0 1.0 0.00 0.00 0.00 58
20200531044309 66 187 0.0 1.0 0.00 0.00 0.00 59
20200531043558 66 155 0.0 1.0 0.00 0.00 0.00 60
20200531042843 66 139 0.0 1.0 0.00 0.00 0.00 60
20200531042134 66 164 0.0 0.0 0.00 0.00 0.00 60
20200531041350 66 146 0.0 0.0 0.00 0.00 0.00 59
20200531040641 67 152 0.0 0.0 0.00 0.00 0.00 58
20200531035926 67 176 2.0 3.0 0.00 0.00 0.06 57
20200531035214 67 277 0.0 2.0 0.00 0.00 0.06 57
20200531034504 67 55 1.0 2.0 0.00 0.00 0.06 58
20200531033750 67 129 1.0 2.0 0.00 0.00 0.06 59
20200531033038 66 139 1.0 2.0 0.00 0.00 0.06 61
20200531032326 64 149 0.0 0.0 0.00 0.00 0.06 67
20200531031614 63 162 0.0 0.0 0.00 0.00 0.06 73
20200531025406 64 168 0.0 0.0 0.00 0.00 0.06 73
20200531024238 64 168 0.0 0.0 0.00 0.00 0.06 72
20200531023109 65 171 0.0 0.0 0.00 0.00 0.06 71
20200531021718 65 171 0.0 0.0 0.00 0.00 0.06 69
20200531020918 65 171 0.0 0.0 0.00 0.00 0.06 70
20200531015926 65 171 0.0 0.0 0.00 0.00 0.06 71
20200531014638 65 171 0.0 0.0 0.00 0.00 0.06 72
20200531013838 66 171 0.0 0.0 0.00 0.00 0.06 72
20200531013110 66 171 0.0 0.0 0.00 0.00 0.06 71
20200531012238 67 171 0.0 0.0 0.00 0.00 0.06 69
20200531010902 68 171 0.0 0.0 0.00 0.00 0.06 70
20200531010118 68 171 0.0 0.0 0.00 0.00 0.06 68
20200531005406 69 171 0.0 0.0 0.00 0.00 0.06 66
20200531004606 70 171 0.0 0.0 0.00 0.00 0.06 65
20200531003734 70 171 0.0 0.0 0.00 0.00 0.06 63
20200531003006 71 171 0.0 0.0 0.00 0.00 0.06 63
20200531002014 71 171 0.0 0.0 0.00 0.00 0.06 60
20200531001214 72 171 0.0 0.0 0.00 0.00 0.06 58
20200531000502 72 171 0.0 0.0 0.00 0.00 0.06 58
20200530235750 72 171 0.0 0.0 0.00 0.00 0.06 55
20200530235038 73 171 0.0 0.0 0.00 0.00 0.06 56
20200530234134 73 171 0.0 0.0 0.00 0.00 0.06 52
20200530233422 74 171 0.0 0.0 0.00 0.00 0.06 53
20200530232654 75 171 0.0 0.0 0.00 0.00 0.06 51
20200530231926 75 169 0.0 0.0 0.00 0.00 0.06 49
20200530231214 76 169 0.0 0.0 0.00 0.00 0.06 48
20200530230358 77 169 0.0 0.0 0.00 0.00 0.06 47
20200530225657 77 164 0.0 0.0 0.00 0.00 0.06 44
20200530224934 77 226 0.0 1.0 0.00 0.00 0.06 44
20200530224222 78 149 0.0 0.0 0.00 0.00 0.06 43
20200530223510 78 156 0.0 0.0 0.00 0.00 0.06 41
20200530222758 78 173 0.0 1.0 0.00 0.00 0.06 45
20200530222047 77 134 0.0 0.0 0.00 0.00 0.06 45
20200530221334 78 113 0.0 1.0 0.00 0.00 0.06 43
20200530220622 78 156 0.0 1.0 0.00 0.00 0.06 42
20200530215910 78 11 1.0 2.0 0.00 0.00 0.06 41
20200530215158 79 191 0.0 1.0 0.00 0.00 0.06 41
20200530214446 80 170 0.0 0.0 0.00 0.00 0.06 41
20200530213735 80 93 1.0 1.0 0.00 0.00 0.06 40
20200530213022 81 242 2.0 2.0 0.00 0.00 0.06 40
20200530212310 80 143 2.0 3.0 0.00 0.00 0.06 41
20200530211559 80 227 2.0 2.0 0.00 0.00 0.06 41
20200530210846 80 205 1.0 2.0 0.00 0.00 0.06 41
20200530210135 80 159 0.0 0.0 0.00 0.00 0.06 42
20200530205422 80 167 2.0 3.0 0.00 0.00 0.06 41
20200530204711 81 204 2.0 3.0 0.00 0.00 0.06 40
20200530203959 82 202 3.0 3.0 0.00 0.00 0.06 39
20200530203247 81 169 2.0 3.0 0.00 0.00 0.06 39
20200530202535 81 185 1.0 2.0 0.00 0.00 0.06 39
20200530201823 82 219 2.0 2.0 0.00 0.00 0.06 39
20200530201111 82 230 2.0 2.0 0.00 0.00 0.06 38
20200530200359 81 106 0.0 1.0 0.00 0.00 0.06 41
20200530195646 81 190 1.0 2.0 0.00 0.00 0.06 40
20200530194935 81 191 1.0 2.0 0.00 0.00 0.06 40
20200530194223 81 189 5.0 6.0 0.00 0.00 0.06 38
20200530193511 81 213 0.0 1.0 0.00 0.00 0.06 38
20200530192758 81 117 0.0 0.0 0.00 0.00 0.06 39
20200530192046 82 223 2.0 3.0 0.00 0.00 0.06 39
20200530191335 81 171 1.0 2.0 0.00 0.00 0.06 39
20200530190623 82 215 2.0 4.0 0.00 0.00 0.06 41
20200530185911 81 168 2.0 3.0 0.00 0.00 0.06 41
20200530185159 82 256 4.0 4.0 0.00 0.00 0.06 38
20200530184447 81 265 2.0 3.0 0.00 0.00 0.06 40
20200530183735 81 149 3.0 4.0 0.00 0.00 0.06 42
20200530183023 80 159 1.0 3.0 0.00 0.00 0.06 43
20200530182311 80 148 1.0 2.0 0.00 0.00 0.06 44
20200530181558 79 143 2.0 3.0 0.00 0.00 0.06 43
20200530180846 79 144 1.0 2.0 0.00 0.00 0.06 43
20200530180134 79 217 0.0 1.0 0.00 0.00 0.06 43
20200530175422 78 220 0.0 1.0 0.00 0.00 0.06 44
20200530174710 79 80 5.0 8.0 0.00 0.00 0.06 43
20200530173959 79 250 3.0 5.0 0.00 0.00 0.06 44
20200530173247 79 30 5.0 6.0 0.00 0.00 0.06 45
20200530172535 79 219 4.0 4.0 0.00 0.00 0.06 45
20200530171824 79 161 3.0 3.0 0.00 0.00 0.06 46
20200530171112 79 173 1.0 2.0 0.00 0.00 0.06 48
20200530170359 78 351 6.0 8.0 0.00 0.00 0.06 47